sensor_id;sensor_type;location;lat;lon;timestamp;P1;durP1;ratioP1;P2;durP2;ratioP2
71288;SDS011;59068;52.502;9.860;2023-11-21T00:00:31;8.40;;;6.43;;
71288;SDS011;59068;52.502;9.860;2023-11-21T00:02:57;11.90;;;6.13;;
71288;SDS011;59068;52.502;9.860;2023-11-21T00:05:25;10.27;;;5.93;;
71288;SDS011;59068;52.502;9.860;2023-11-21T00:07:52;13.17;;;7.47;;
71288;SDS011;59068;52.502;9.860;2023-11-21T00:10:18;10.87;;;6.30;;
71288;SDS011;59068;52.502;9.860;2023-11-21T00:12:44;10.20;;;6.17;;
71288;SDS011;59068;52.502;9.860;2023-11-21T00:15:13;9.87;;;7.03;;
71288;SDS011;59068;52.502;9.860;2023-11-21T00:17:40;14.33;;;6.60;;
71288;SDS011;59068;52.502;9.860;2023-11-21T00:20:07;12.37;;;6.80;;
71288;SDS011;59068;52.502;9.860;2023-11-21T00:22:39;9.73;;;7.17;;
71288;SDS011;59068;52.502;9.860;2023-11-21T00:25:06;10.70;;;7.13;;
71288;SDS011;59068;52.502;9.860;2023-11-21T00:27:34;11.90;;;7.03;;
71288;SDS011;59068;52.502;9.860;2023-11-21T00:30:00;10.93;;;7.13;;
71288;SDS011;59068;52.502;9.860;2023-11-21T00:32:27;11.47;;;7.53;;
71288;SDS011;59068;52.502;9.860;2023-11-21T00:34:53;13.27;;;7.60;;
71288;SDS011;59068;52.502;9.860;2023-11-21T00:37:20;12.10;;;7.33;;
71288;SDS011;59068;52.502;9.860;2023-11-21T00:39:48;14.63;;;8.07;;
71288;SDS011;59068;52.502;9.860;2023-11-21T00:42:14;15.10;;;8.13;;
71288;SDS011;59068;52.502;9.860;2023-11-21T00:44:41;13.90;;;8.00;;
71288;SDS011;59068;52.502;9.860;2023-11-21T00:47:07;13.00;;;7.50;;
71288;SDS011;59068;52.502;9.860;2023-11-21T00:49:34;11.40;;;8.17;;
71288;SDS011;59068;52.502;9.860;2023-11-21T00:52:00;17.10;;;8.83;;
71288;SDS011;59068;52.502;9.860;2023-11-21T00:54:27;12.57;;;8.90;;
71288;SDS011;59068;52.502;9.860;2023-11-21T00:56:55;13.53;;;9.10;;
71288;SDS011;59068;52.502;9.860;2023-11-21T00:59:22;13.00;;;9.20;;
71288;SDS011;59068;52.502;9.860;2023-11-21T01:01:49;13.47;;;8.97;;
71288;SDS011;59068;52.502;9.860;2023-11-21T01:04:15;12.57;;;9.17;;
71288;SDS011;59068;52.502;9.860;2023-11-21T01:06:42;14.53;;;9.53;;
71288;SDS011;59068;52.502;9.860;2023-11-21T01:09:08;10.87;;;8.80;;
71288;SDS011;59068;52.502;9.860;2023-11-21T01:11:35;20.07;;;10.00;;
71288;SDS011;59068;52.502;9.860;2023-11-21T01:14:04;13.73;;;8.97;;
71288;SDS011;59068;52.502;9.860;2023-11-21T01:16:31;14.37;;;8.80;;
71288;SDS011;59068;52.502;9.860;2023-11-21T01:18:58;15.50;;;9.50;;
71288;SDS011;59068;52.502;9.860;2023-11-21T01:21:25;13.07;;;9.23;;
71288;SDS011;59068;52.502;9.860;2023-11-21T01:23:51;15.17;;;9.87;;
71288;SDS011;59068;52.502;9.860;2023-11-21T01:26:17;16.00;;;9.57;;
71288;SDS011;59068;52.502;9.860;2023-11-21T01:28:44;13.70;;;10.10;;
71288;SDS011;59068;52.502;9.860;2023-11-21T01:31:12;22.67;;;10.33;;
71288;SDS011;59068;52.502;9.860;2023-11-21T01:33:38;15.27;;;10.23;;
71288;SDS011;59068;52.502;9.860;2023-11-21T01:36:05;13.03;;;9.70;;
71288;SDS011;59068;52.502;9.860;2023-11-21T01:38:32;16.23;;;10.20;;
71288;SDS011;59068;52.502;9.860;2023-11-21T01:40:58;16.63;;;9.63;;
71288;SDS011;59068;52.502;9.860;2023-11-21T01:43:25;16.50;;;10.33;;
71288;SDS011;59068;52.502;9.860;2023-11-21T01:45:52;18.13;;;10.57;;
71288;SDS011;59068;52.502;9.860;2023-11-21T01:48:23;15.70;;;9.20;;
71288;SDS011;59068;52.502;9.860;2023-11-21T01:50:49;18.33;;;10.90;;
71288;SDS011;59068;52.502;9.860;2023-11-21T01:53:17;17.80;;;10.70;;
71288;SDS011;59068;52.502;9.860;2023-11-21T01:55:43;19.93;;;11.57;;
71288;SDS011;59068;52.502;9.860;2023-11-21T01:58:11;20.77;;;11.10;;
71288;SDS011;59068;52.502;9.860;2023-11-21T02:00:38;14.30;;;10.97;;
71288;SDS011;59068;52.502;9.860;2023-11-21T02:03:05;16.87;;;11.10;;
71288;SDS011;59068;52.502;9.860;2023-11-21T02:05:33;17.37;;;10.80;;
71288;SDS011;59068;52.502;9.860;2023-11-21T02:08:01;18.63;;;10.80;;
71288;SDS011;59068;52.502;9.860;2023-11-21T02:10:28;20.17;;;11.83;;
71288;SDS011;59068;52.502;9.860;2023-11-21T02:12:56;19.57;;;11.70;;
71288;SDS011;59068;52.502;9.860;2023-11-21T02:15:23;17.97;;;11.70;;
71288;SDS011;59068;52.502;9.860;2023-11-21T02:17:53;18.43;;;11.57;;
71288;SDS011;59068;52.502;9.860;2023-11-21T02:20:20;20.53;;;11.30;;
71288;SDS011;59068;52.502;9.860;2023-11-21T02:22:50;19.93;;;12.07;;
71288;SDS011;59068;52.502;9.860;2023-11-21T02:25:18;17.53;;;12.80;;
71288;SDS011;59068;52.502;9.860;2023-11-21T02:27:44;18.93;;;12.13;;
71288;SDS011;59068;52.502;9.860;2023-11-21T02:30:13;23.67;;;12.90;;
71288;SDS011;59068;52.502;9.860;2023-11-21T02:32:41;22.37;;;13.20;;
71288;SDS011;59068;52.502;9.860;2023-11-21T02:35:08;22.57;;;12.13;;
71288;SDS011;59068;52.502;9.860;2023-11-21T02:37:34;25.37;;;12.63;;
71288;SDS011;59068;52.502;9.860;2023-11-21T02:40:02;21.57;;;12.30;;
71288;SDS011;59068;52.502;9.860;2023-11-21T02:42:30;22.30;;;13.23;;
71288;SDS011;59068;52.502;9.860;2023-11-21T02:44:57;22.17;;;13.23;;
71288;SDS011;59068;52.502;9.860;2023-11-21T02:47:23;16.43;;;12.17;;
71288;SDS011;59068;52.502;9.860;2023-11-21T02:49:50;17.40;;;12.27;;
71288;SDS011;59068;52.502;9.860;2023-11-21T02:52:17;21.03;;;13.40;;
71288;SDS011;59068;52.502;9.860;2023-11-21T02:54:44;21.33;;;12.30;;
71288;SDS011;59068;52.502;9.860;2023-11-21T02:57:11;20.50;;;12.73;;
71288;SDS011;59068;52.502;9.860;2023-11-21T02:59:38;28.13;;;13.73;;
71288;SDS011;59068;52.502;9.860;2023-11-21T03:02:05;19.97;;;12.90;;
71288;SDS011;59068;52.502;9.860;2023-11-21T03:04:33;21.50;;;12.43;;
71288;SDS011;59068;52.502;9.860;2023-11-21T03:06:59;21.10;;;13.63;;
71288;SDS011;59068;52.502;9.860;2023-11-21T03:09:26;24.53;;;13.67;;
71288;SDS011;59068;52.502;9.860;2023-11-21T03:11:53;22.37;;;13.50;;
71288;SDS011;59068;52.502;9.860;2023-11-21T03:14:20;19.37;;;13.03;;
71288;SDS011;59068;52.502;9.860;2023-11-21T03:16:49;23.23;;;12.90;;
71288;SDS011;59068;52.502;9.860;2023-11-21T03:19:16;21.77;;;13.00;;
71288;SDS011;59068;52.502;9.860;2023-11-21T03:21:42;20.90;;;13.07;;
71288;SDS011;59068;52.502;9.860;2023-11-21T03:24:08;20.03;;;13.17;;
71288;SDS011;59068;52.502;9.860;2023-11-21T03:26:35;21.13;;;13.30;;
71288;SDS011;59068;52.502;9.860;2023-11-21T03:29:02;20.00;;;12.40;;
71288;SDS011;59068;52.502;9.860;2023-11-21T03:31:31;28.80;;;14.43;;
71288;SDS011;59068;52.502;9.860;2023-11-21T03:33:57;22.50;;;13.47;;
71288;SDS011;59068;52.502;9.860;2023-11-21T03:36:24;20.53;;;13.10;;
71288;SDS011;59068;52.502;9.860;2023-11-21T03:38:51;21.93;;;12.83;;
71288;SDS011;59068;52.502;9.860;2023-11-21T03:41:17;22.53;;;12.93;;
71288;SDS011;59068;52.502;9.860;2023-11-21T03:43:43;23.50;;;14.00;;
71288;SDS011;59068;52.502;9.860;2023-11-21T03:46:10;23.07;;;14.03;;
71288;SDS011;59068;52.502;9.860;2023-11-21T03:48:40;23.83;;;14.17;;
71288;SDS011;59068;52.502;9.860;2023-11-21T03:51:07;23.00;;;13.20;;
71288;SDS011;59068;52.502;9.860;2023-11-21T03:53:33;20.10;;;13.40;;
71288;SDS011;59068;52.502;9.860;2023-11-21T03:56:01;24.77;;;14.47;;
71288;SDS011;59068;52.502;9.860;2023-11-21T03:58:28;24.57;;;14.47;;
71288;SDS011;59068;52.502;9.860;2023-11-21T04:00:54;23.17;;;13.93;;
71288;SDS011;59068;52.502;9.860;2023-11-21T04:03:21;23.70;;;14.77;;
71288;SDS011;59068;52.502;9.860;2023-11-21T04:05:48;22.60;;;13.83;;
71288;SDS011;59068;52.502;9.860;2023-11-21T04:08:15;25.93;;;13.60;;
71288;SDS011;59068;52.502;9.860;2023-11-21T04:10:41;25.10;;;14.07;;
71288;SDS011;59068;52.502;9.860;2023-11-21T04:13:08;28.20;;;14.80;;
71288;SDS011;59068;52.502;9.860;2023-11-21T04:15:35;22.07;;;14.77;;
71288;SDS011;59068;52.502;9.860;2023-11-21T04:18:03;25.97;;;14.03;;
71288;SDS011;59068;52.502;9.860;2023-11-21T04:20:29;27.47;;;15.40;;
71288;SDS011;59068;52.502;9.860;2023-11-21T04:22:57;24.03;;;14.70;;
71288;SDS011;59068;52.502;9.860;2023-11-21T04:25:23;23.23;;;14.13;;
71288;SDS011;59068;52.502;9.860;2023-11-21T04:27:50;23.43;;;13.37;;
71288;SDS011;59068;52.502;9.860;2023-11-21T04:30:16;25.97;;;15.27;;
71288;SDS011;59068;52.502;9.860;2023-11-21T04:32:43;22.20;;;13.53;;
71288;SDS011;59068;52.502;9.860;2023-11-21T04:35:10;19.70;;;13.30;;
71288;SDS011;59068;52.502;9.860;2023-11-21T04:37:36;26.90;;;14.27;;
71288;SDS011;59068;52.502;9.860;2023-11-21T04:40:05;24.40;;;13.97;;
71288;SDS011;59068;52.502;9.860;2023-11-21T04:42:33;20.97;;;13.37;;
71288;SDS011;59068;52.502;9.860;2023-11-21T04:44:59;24.33;;;13.67;;
71288;SDS011;59068;52.502;9.860;2023-11-21T04:47:26;20.47;;;13.90;;
71288;SDS011;59068;52.502;9.860;2023-11-21T04:49:53;20.37;;;12.73;;
71288;SDS011;59068;52.502;9.860;2023-11-21T04:52:19;22.10;;;12.40;;
71288;SDS011;59068;52.502;9.860;2023-11-21T04:54:46;20.83;;;13.47;;
71288;SDS011;59068;52.502;9.860;2023-11-21T04:57:14;23.57;;;13.80;;
71288;SDS011;59068;52.502;9.860;2023-11-21T04:59:43;19.23;;;12.43;;
71288;SDS011;59068;52.502;9.860;2023-11-21T05:02:09;20.77;;;13.13;;
71288;SDS011;59068;52.502;9.860;2023-11-21T05:04:37;20.33;;;12.40;;
71288;SDS011;59068;52.502;9.860;2023-11-21T05:07:03;21.97;;;12.57;;
71288;SDS011;59068;52.502;9.860;2023-11-21T05:09:31;21.93;;;12.50;;
71288;SDS011;59068;52.502;9.860;2023-11-21T05:11:58;23.10;;;13.60;;
71288;SDS011;59068;52.502;9.860;2023-11-21T05:14:26;21.00;;;13.90;;
71288;SDS011;59068;52.502;9.860;2023-11-21T05:16:53;19.30;;;12.17;;
71288;SDS011;59068;52.502;9.860;2023-11-21T05:19:19;17.47;;;12.07;;
71288;SDS011;59068;52.502;9.860;2023-11-21T05:21:46;17.43;;;11.50;;
71288;SDS011;59068;52.502;9.860;2023-11-21T05:24:12;16.20;;;11.47;;
71288;SDS011;59068;52.502;9.860;2023-11-21T05:26:39;18.50;;;11.53;;
71288;SDS011;59068;52.502;9.860;2023-11-21T05:29:05;17.47;;;11.27;;
71288;SDS011;59068;52.502;9.860;2023-11-21T05:31:34;17.57;;;10.87;;
71288;SDS011;59068;52.502;9.860;2023-11-21T05:34:00;15.03;;;10.07;;
71288;SDS011;59068;52.502;9.860;2023-11-21T05:36:27;19.87;;;11.57;;
71288;SDS011;59068;52.502;9.860;2023-11-21T05:38:53;16.13;;;11.03;;
71288;SDS011;59068;52.502;9.860;2023-11-21T05:41:19;17.30;;;10.77;;
71288;SDS011;59068;52.502;9.860;2023-11-21T05:43:46;14.60;;;10.03;;
71288;SDS011;59068;52.502;9.860;2023-11-21T05:46:13;19.63;;;10.80;;
71288;SDS011;59068;52.502;9.860;2023-11-21T05:48:41;12.07;;;9.07;;
71288;SDS011;59068;52.502;9.860;2023-11-21T05:51:07;12.40;;;8.70;;
71288;SDS011;59068;52.502;9.860;2023-11-21T05:53:33;11.03;;;8.50;;
71288;SDS011;59068;52.502;9.860;2023-11-21T05:56:00;12.67;;;6.87;;
71288;SDS011;59068;52.502;9.860;2023-11-21T05:58:28;9.13;;;6.00;;
71288;SDS011;59068;52.502;9.860;2023-11-21T06:00:56;4.77;;;4.13;;
71288;SDS011;59068;52.502;9.860;2023-11-21T06:03:22;6.40;;;3.47;;
71288;SDS011;59068;52.502;9.860;2023-11-21T06:05:50;2.70;;;2.47;;
71288;SDS011;59068;52.502;9.860;2023-11-21T06:08:17;5.30;;;3.53;;
71288;SDS011;59068;52.502;9.860;2023-11-21T06:10:43;3.80;;;2.97;;
71288;SDS011;59068;52.502;9.860;2023-11-21T06:13:10;3.33;;;2.90;;
71288;SDS011;59068;52.502;9.860;2023-11-21T06:15:36;2.37;;;2.17;;
71288;SDS011;59068;52.502;9.860;2023-11-21T06:18:03;2.70;;;2.40;;
71288;SDS011;59068;52.502;9.860;2023-11-21T06:20:31;2.77;;;2.53;;
71288;SDS011;59068;52.502;9.860;2023-11-21T06:22:59;4.77;;;3.30;;
71288;SDS011;59068;52.502;9.860;2023-11-21T06:25:28;4.30;;;2.67;;
71288;SDS011;59068;52.502;9.860;2023-11-21T06:27:58;4.20;;;3.40;;
71288;SDS011;59068;52.502;9.860;2023-11-21T06:30:24;4.30;;;3.50;;
71288;SDS011;59068;52.502;9.860;2023-11-21T06:32:51;5.10;;;3.40;;
71288;SDS011;59068;52.502;9.860;2023-11-21T06:35:17;5.37;;;3.47;;
71288;SDS011;59068;52.502;9.860;2023-11-21T06:37:44;5.87;;;3.40;;
71288;SDS011;59068;52.502;9.860;2023-11-21T06:40:14;5.03;;;3.60;;
71288;SDS011;59068;52.502;9.860;2023-11-21T06:42:41;4.80;;;3.53;;
71288;SDS011;59068;52.502;9.860;2023-11-21T06:45:09;7.27;;;4.03;;
71288;SDS011;59068;52.502;9.860;2023-11-21T06:47:36;6.40;;;4.00;;
71288;SDS011;59068;52.502;9.860;2023-11-21T06:50:03;5.50;;;4.90;;
71288;SDS011;59068;52.502;9.860;2023-11-21T06:52:30;5.90;;;4.57;;
71288;SDS011;59068;52.502;9.860;2023-11-21T06:54:56;7.03;;;4.80;;
71288;SDS011;59068;52.502;9.860;2023-11-21T06:57:24;6.37;;;5.47;;
71288;SDS011;59068;52.502;9.860;2023-11-21T06:59:50;6.67;;;5.90;;
71288;SDS011;59068;52.502;9.860;2023-11-21T07:02:17;7.50;;;5.70;;
71288;SDS011;59068;52.502;9.860;2023-11-21T07:04:44;6.80;;;5.70;;
71288;SDS011;59068;52.502;9.860;2023-11-21T07:07:11;5.77;;;5.17;;
71288;SDS011;59068;52.502;9.860;2023-11-21T07:09:38;7.73;;;6.10;;
71288;SDS011;59068;52.502;9.860;2023-11-21T07:12:05;7.93;;;6.90;;
71288;SDS011;59068;52.502;9.860;2023-11-21T07:14:34;8.53;;;6.83;;
71288;SDS011;59068;52.502;9.860;2023-11-21T07:17:00;10.00;;;7.30;;
71288;SDS011;59068;52.502;9.860;2023-11-21T07:19:27;9.93;;;6.57;;
71288;SDS011;59068;52.502;9.860;2023-11-21T07:21:54;7.97;;;6.83;;
71288;SDS011;59068;52.502;9.860;2023-11-21T07:24:20;8.43;;;6.97;;
71288;SDS011;59068;52.502;9.860;2023-11-21T07:26:47;9.30;;;7.30;;
71288;SDS011;59068;52.502;9.860;2023-11-21T07:29:14;8.33;;;6.47;;
71288;SDS011;59068;52.502;9.860;2023-11-21T07:31:42;10.87;;;8.13;;
71288;SDS011;59068;52.502;9.860;2023-11-21T07:36:58;10.40;;;7.83;;
71288;SDS011;59068;52.502;9.860;2023-11-21T07:39:24;9.70;;;7.67;;
71288;SDS011;59068;52.502;9.860;2023-11-21T07:41:50;12.03;;;7.93;;
71288;SDS011;59068;52.502;9.860;2023-11-21T07:44:17;10.37;;;7.83;;
71288;SDS011;59068;52.502;9.860;2023-11-21T07:46:46;10.27;;;7.87;;
71288;SDS011;59068;52.502;9.860;2023-11-21T07:49:12;10.27;;;7.73;;
71288;SDS011;59068;52.502;9.860;2023-11-21T07:51:41;11.67;;;9.27;;
71288;SDS011;59068;52.502;9.860;2023-11-21T07:54:07;11.17;;;8.87;;
71288;SDS011;59068;52.502;9.860;2023-11-21T07:56:33;11.27;;;8.33;;
71288;SDS011;59068;52.502;9.860;2023-11-21T07:59:00;12.03;;;9.20;;
71288;SDS011;59068;52.502;9.860;2023-11-21T08:01:26;12.03;;;9.03;;
71288;SDS011;59068;52.502;9.860;2023-11-21T08:03:54;10.63;;;9.13;;
71288;SDS011;59068;52.502;9.860;2023-11-21T08:06:24;9.40;;;8.40;;
71288;SDS011;59068;52.502;9.860;2023-11-21T08:08:50;10.50;;;7.80;;
71288;SDS011;59068;52.502;9.860;2023-11-21T08:11:17;8.97;;;7.90;;
71288;SDS011;59068;52.502;9.860;2023-11-21T08:13:44;10.80;;;8.20;;
71288;SDS011;59068;52.502;9.860;2023-11-21T08:16:11;11.47;;;8.27;;
71288;SDS011;59068;52.502;9.860;2023-11-21T08:18:37;11.23;;;8.03;;
71288;SDS011;59068;52.502;9.860;2023-11-21T08:21:06;10.53;;;8.00;;
71288;SDS011;59068;52.502;9.860;2023-11-21T08:23:33;10.33;;;8.37;;
71288;SDS011;59068;52.502;9.860;2023-11-21T08:25:59;11.30;;;8.90;;
71288;SDS011;59068;52.502;9.860;2023-11-21T08:28:28;10.63;;;8.37;;
71288;SDS011;59068;52.502;9.860;2023-11-21T08:30:55;10.33;;;8.43;;
71288;SDS011;59068;52.502;9.860;2023-11-21T08:33:21;10.73;;;7.97;;
71288;SDS011;59068;52.502;9.860;2023-11-21T08:35:48;11.10;;;8.20;;
71288;SDS011;59068;52.502;9.860;2023-11-21T08:38:15;12.67;;;8.47;;
71288;SDS011;59068;52.502;9.860;2023-11-21T08:40:42;12.67;;;7.70;;
71288;SDS011;59068;52.502;9.860;2023-11-21T08:43:09;12.33;;;7.93;;
71288;SDS011;59068;52.502;9.860;2023-11-21T08:45:37;10.13;;;8.27;;
71288;SDS011;59068;52.502;9.860;2023-11-21T08:48:03;9.50;;;8.40;;
71288;SDS011;59068;52.502;9.860;2023-11-21T08:50:30;13.23;;;8.40;;
71288;SDS011;59068;52.502;9.860;2023-11-21T08:52:57;11.67;;;8.27;;
71288;SDS011;59068;52.502;9.860;2023-11-21T08:55:24;10.00;;;7.87;;
71288;SDS011;59068;52.502;9.860;2023-11-21T08:57:51;8.87;;;7.47;;
71288;SDS011;59068;52.502;9.860;2023-11-21T09:00:17;9.67;;;7.97;;
71288;SDS011;59068;52.502;9.860;2023-11-21T09:02:44;8.20;;;6.87;;
71288;SDS011;59068;52.502;9.860;2023-11-21T09:05:11;10.10;;;7.33;;
71288;SDS011;59068;52.502;9.860;2023-11-21T09:07:38;11.23;;;8.53;;
71288;SDS011;59068;52.502;9.860;2023-11-21T09:10:06;9.77;;;7.73;;
71288;SDS011;59068;52.502;9.860;2023-11-21T09:12:34;8.63;;;7.23;;
71288;SDS011;59068;52.502;9.860;2023-11-21T09:15:02;8.90;;;7.47;;
71288;SDS011;59068;52.502;9.860;2023-11-21T09:17:29;8.70;;;7.40;;
71288;SDS011;59068;52.502;9.860;2023-11-21T09:19:56;8.57;;;6.70;;
71288;SDS011;59068;52.502;9.860;2023-11-21T09:22:22;7.60;;;6.37;;
71288;SDS011;59068;52.502;9.860;2023-11-21T09:24:50;7.97;;;6.77;;
71288;SDS011;59068;52.502;9.860;2023-11-21T09:27:16;8.80;;;6.87;;
71288;SDS011;59068;52.502;9.860;2023-11-21T09:29:44;9.23;;;6.43;;
71288;SDS011;59068;52.502;9.860;2023-11-21T09:32:12;8.87;;;6.97;;
71288;SDS011;59068;52.502;9.860;2023-11-21T09:34:41;8.07;;;6.17;;
71288;SDS011;59068;52.502;9.860;2023-11-21T09:37:07;8.03;;;6.60;;
71288;SDS011;59068;52.502;9.860;2023-11-21T09:39:34;7.77;;;6.43;;
71288;SDS011;59068;52.502;9.860;2023-11-21T09:42:04;6.80;;;5.90;;
71288;SDS011;59068;52.502;9.860;2023-11-21T09:44:32;7.17;;;5.67;;
71288;SDS011;59068;52.502;9.860;2023-11-21T09:47:02;6.80;;;6.00;;
71288;SDS011;59068;52.502;9.860;2023-11-21T09:49:29;6.70;;;6.00;;
71288;SDS011;59068;52.502;9.860;2023-11-21T09:52:00;6.57;;;5.90;;
71288;SDS011;59068;52.502;9.860;2023-11-21T09:54:28;7.27;;;5.40;;
71288;SDS011;59068;52.502;9.860;2023-11-21T09:56:56;7.67;;;5.30;;
71288;SDS011;59068;52.502;9.860;2023-11-21T09:59:23;7.50;;;5.40;;
71288;SDS011;59068;52.502;9.860;2023-11-21T10:01:50;6.27;;;5.17;;
71288;SDS011;59068;52.502;9.860;2023-11-21T10:04:18;6.27;;;5.30;;
71288;SDS011;59068;52.502;9.860;2023-11-21T10:06:45;7.07;;;5.30;;
71288;SDS011;59068;52.502;9.860;2023-11-21T10:09:12;7.07;;;5.63;;
71288;SDS011;59068;52.502;9.860;2023-11-21T10:11:40;6.70;;;5.80;;
71288;SDS011;59068;52.502;9.860;2023-11-21T10:14:08;5.40;;;4.80;;
71288;SDS011;59068;52.502;9.860;2023-11-21T10:16:38;6.20;;;4.90;;
71288;SDS011;59068;52.502;9.860;2023-11-21T10:19:04;6.90;;;5.13;;
71288;SDS011;59068;52.502;9.860;2023-11-21T10:21:33;5.17;;;4.67;;
71288;SDS011;59068;52.502;9.860;2023-11-21T10:23:59;5.90;;;5.03;;
71288;SDS011;59068;52.502;9.860;2023-11-21T10:26:26;6.23;;;4.80;;
71288;SDS011;59068;52.502;9.860;2023-11-21T10:28:55;5.23;;;4.33;;
71288;SDS011;59068;52.502;9.860;2023-11-21T10:31:22;5.13;;;4.63;;
71288;SDS011;59068;52.502;9.860;2023-11-21T10:33:49;6.40;;;4.63;;
71288;SDS011;59068;52.502;9.860;2023-11-21T10:36:20;4.93;;;4.00;;
71288;SDS011;59068;52.502;9.860;2023-11-21T10:38:52;8.27;;;4.90;;
71288;SDS011;59068;52.502;9.860;2023-11-21T10:41:19;4.43;;;4.03;;
71288;SDS011;59068;52.502;9.860;2023-11-21T10:43:46;4.53;;;4.10;;
71288;SDS011;59068;52.502;9.860;2023-11-21T10:46:13;4.57;;;3.90;;
71288;SDS011;59068;52.502;9.860;2023-11-21T10:48:40;4.57;;;4.13;;
71288;SDS011;59068;52.502;9.860;2023-11-21T10:51:07;5.50;;;4.60;;
71288;SDS011;59068;52.502;9.860;2023-11-21T10:53:38;5.47;;;4.90;;
71288;SDS011;59068;52.502;9.860;2023-11-21T10:56:06;4.37;;;3.90;;
71288;SDS011;59068;52.502;9.860;2023-11-21T10:58:35;5.10;;;4.40;;
71288;SDS011;59068;52.502;9.860;2023-11-21T11:01:01;4.13;;;3.73;;
71288;SDS011;59068;52.502;9.860;2023-11-21T11:03:30;5.97;;;4.73;;
71288;SDS011;59068;52.502;9.860;2023-11-21T11:05:58;4.47;;;4.07;;
71288;SDS011;59068;52.502;9.860;2023-11-21T11:08:25;5.37;;;3.77;;
71288;SDS011;59068;52.502;9.860;2023-11-21T11:10:52;4.97;;;4.47;;
71288;SDS011;59068;52.502;9.860;2023-11-21T11:13:20;4.13;;;3.73;;
71288;SDS011;59068;52.502;9.860;2023-11-21T11:15:48;4.77;;;4.10;;
71288;SDS011;59068;52.502;9.860;2023-11-21T11:18:14;4.13;;;3.73;;
71288;SDS011;59068;52.502;9.860;2023-11-21T11:20:42;4.90;;;4.00;;
71288;SDS011;59068;52.502;9.860;2023-11-21T11:23:13;4.30;;;3.90;;
71288;SDS011;59068;52.502;9.860;2023-11-21T11:25:46;4.60;;;3.77;;
71288;SDS011;59068;52.502;9.860;2023-11-21T11:28:17;4.30;;;3.90;;
71288;SDS011;59068;52.502;9.860;2023-11-21T11:30:50;4.27;;;3.87;;
71288;SDS011;59068;52.502;9.860;2023-11-21T11:33:21;5.10;;;3.90;;
71288;SDS011;59068;52.502;9.860;2023-11-21T11:35:52;4.93;;;3.87;;
71288;SDS011;59068;52.502;9.860;2023-11-21T11:38:23;3.43;;;3.13;;
71288;SDS011;59068;52.502;9.860;2023-11-21T11:40:52;3.90;;;3.50;;
71288;SDS011;59068;52.502;9.860;2023-11-21T11:43:24;4.90;;;3.90;;
71288;SDS011;59068;52.502;9.860;2023-11-21T11:45:53;4.00;;;3.40;;
71288;SDS011;59068;52.502;9.860;2023-11-21T11:48:21;4.17;;;3.77;;
71288;SDS011;59068;52.502;9.860;2023-11-21T11:51:04;6.43;;;3.90;;
71288;SDS011;59068;52.502;9.860;2023-11-21T11:53:37;3.93;;;3.53;;
71288;SDS011;59068;52.502;9.860;2023-11-21T11:58:52;4.00;;;3.60;;
71288;SDS011;59068;52.502;9.860;2023-11-21T12:01:20;4.73;;;3.37;;
71288;SDS011;59068;52.502;9.860;2023-11-21T12:06:33;3.17;;;2.87;;
71288;SDS011;59068;52.502;9.860;2023-11-21T12:09:00;3.60;;;3.30;;
71288;SDS011;59068;52.502;9.860;2023-11-21T12:11:30;3.43;;;3.03;;
71288;SDS011;59068;52.502;9.860;2023-11-21T12:13:56;3.43;;;3.13;;
71288;SDS011;59068;52.502;9.860;2023-11-21T12:16:25;4.23;;;3.53;;
71288;SDS011;59068;52.502;9.860;2023-11-21T12:18:53;4.50;;;3.83;;
71288;SDS011;59068;52.502;9.860;2023-11-21T12:21:19;4.90;;;3.67;;
71288;SDS011;59068;52.502;9.860;2023-11-21T12:23:46;4.73;;;4.10;;
71288;SDS011;59068;52.502;9.860;2023-11-21T12:26:13;5.27;;;3.73;;
71288;SDS011;59068;52.502;9.860;2023-11-21T12:28:39;4.57;;;4.07;;
71288;SDS011;59068;52.502;9.860;2023-11-21T12:31:05;4.53;;;4.07;;
71288;SDS011;59068;52.502;9.860;2023-11-21T12:33:34;4.27;;;3.87;;
71288;SDS011;59068;52.502;9.860;2023-11-21T12:36:00;5.13;;;4.10;;
71288;SDS011;59068;52.502;9.860;2023-11-21T12:38:33;4.60;;;4.13;;
71288;SDS011;59068;52.502;9.860;2023-11-21T12:40:59;4.97;;;4.10;;
71288;SDS011;59068;52.502;9.860;2023-11-21T12:43:26;5.10;;;3.73;;
71288;SDS011;59068;52.502;9.860;2023-11-21T12:46:04;4.27;;;3.83;;
71288;SDS011;59068;52.502;9.860;2023-11-21T12:48:31;5.33;;;4.23;;
71288;SDS011;59068;52.502;9.860;2023-11-21T12:50:59;5.83;;;3.90;;
71288;SDS011;59068;52.502;9.860;2023-11-21T12:53:27;3.20;;;2.90;;
71288;SDS011;59068;52.502;9.860;2023-11-21T12:56:02;4.40;;;4.00;;
71288;SDS011;59068;52.502;9.860;2023-11-21T12:58:28;4.47;;;3.40;;
71288;SDS011;59068;52.502;9.860;2023-11-21T13:00:55;3.90;;;3.00;;
71288;SDS011;59068;52.502;9.860;2023-11-21T13:03:25;3.73;;;3.40;;
71288;SDS011;59068;52.502;9.860;2023-11-21T13:05:52;4.30;;;3.73;;
71288;SDS011;59068;52.502;9.860;2023-11-21T13:08:21;3.60;;;2.80;;
71288;SDS011;59068;52.502;9.860;2023-11-21T13:10:49;5.67;;;4.20;;
71288;SDS011;59068;52.502;9.860;2023-11-21T13:13:16;4.63;;;3.23;;
71288;SDS011;59068;52.502;9.860;2023-11-21T13:15:47;3.00;;;2.80;;
71288;SDS011;59068;52.502;9.860;2023-11-21T13:18:14;4.23;;;3.03;;
71288;SDS011;59068;52.502;9.860;2023-11-21T13:20:42;3.03;;;2.73;;
71288;SDS011;59068;52.502;9.860;2023-11-21T13:23:09;3.30;;;3.00;;
71288;SDS011;59068;52.502;9.860;2023-11-21T13:25:38;3.37;;;2.60;;
71288;SDS011;59068;52.502;9.860;2023-11-21T13:28:06;3.53;;;2.87;;
71288;SDS011;59068;52.502;9.860;2023-11-21T13:30:32;3.03;;;2.73;;
71288;SDS011;59068;52.502;9.860;2023-11-21T13:32:59;3.73;;;3.20;;
71288;SDS011;59068;52.502;9.860;2023-11-21T13:35:27;3.27;;;2.97;;
71288;SDS011;59068;52.502;9.860;2023-11-21T13:37:57;3.67;;;3.37;;
71288;SDS011;59068;52.502;9.860;2023-11-21T13:40:29;3.10;;;2.90;;
71288;SDS011;59068;52.502;9.860;2023-11-21T13:42:56;3.20;;;2.90;;
71288;SDS011;59068;52.502;9.860;2023-11-21T13:45:24;3.37;;;3.07;;
71288;SDS011;59068;52.502;9.860;2023-11-21T13:47:53;3.00;;;2.73;;
71288;SDS011;59068;52.502;9.860;2023-11-21T13:50:23;3.50;;;3.20;;
71288;SDS011;59068;52.502;9.860;2023-11-21T13:52:54;3.67;;;3.23;;
71288;SDS011;59068;52.502;9.860;2023-11-21T13:55:20;3.90;;;3.13;;
71288;SDS011;59068;52.502;9.860;2023-11-21T13:57:51;3.10;;;2.87;;
71288;SDS011;59068;52.502;9.860;2023-11-21T14:00:21;3.40;;;3.03;;
71288;SDS011;59068;52.502;9.860;2023-11-21T14:03:10;3.60;;;2.97;;
71288;SDS011;59068;52.502;9.860;2023-11-21T14:05:43;3.40;;;3.10;;
71288;SDS011;59068;52.502;9.860;2023-11-21T14:08:12;3.47;;;3.17;;
71288;SDS011;59068;52.502;9.860;2023-11-21T14:10:41;3.07;;;2.70;;
71288;SDS011;59068;52.502;9.860;2023-11-21T14:13:09;3.40;;;2.70;;
71288;SDS011;59068;52.502;9.860;2023-11-21T14:15:40;3.43;;;3.13;;
71288;SDS011;59068;52.502;9.860;2023-11-21T14:18:10;4.27;;;3.40;;
71288;SDS011;59068;52.502;9.860;2023-11-21T14:20:39;4.80;;;3.07;;
71288;SDS011;59068;52.502;9.860;2023-11-21T14:23:06;2.90;;;2.63;;
71288;SDS011;59068;52.502;9.860;2023-11-21T14:25:33;3.20;;;2.57;;
71288;SDS011;59068;52.502;9.860;2023-11-21T14:28:01;3.20;;;2.80;;
71288;SDS011;59068;52.502;9.860;2023-11-21T14:30:28;2.93;;;2.63;;
71288;SDS011;59068;52.502;9.860;2023-11-21T14:32:58;3.00;;;2.33;;
71288;SDS011;59068;52.502;9.860;2023-11-21T14:35:24;3.80;;;3.30;;
71288;SDS011;59068;52.502;9.860;2023-11-21T14:37:51;2.90;;;2.70;;
71288;SDS011;59068;52.502;9.860;2023-11-21T14:40:18;2.80;;;2.60;;
71288;SDS011;59068;52.502;9.860;2023-11-21T14:42:49;3.83;;;3.07;;
71288;SDS011;59068;52.502;9.860;2023-11-21T14:45:18;3.43;;;3.13;;
71288;SDS011;59068;52.502;9.860;2023-11-21T14:47:45;3.17;;;2.77;;